EGNHEGEO

Guest
Details From EGNH - Blackpool
To EGEO - Oban
Flight Number -
Tags generated
Created
Modified
Stats Distance 181 nm / 335 km
Max Altitude 19,400 ft / 5,913 m
Waypoints 3
Social Downloads 0
Likes 0
Share

Download

Looking for another format? Having issues loading an existing format? Contact us
Advertisement - Login to hide

Notes

Basic altitude profile: - Ascent Rate: 2500ft/min - Ascent Speed: 250kts - Cruise Altitude: 35000ft - Cruise Speed: 420kts - Descent Rate: 1500ft/min - Descent Speed: 250kts Options: - Use NATs: yes - Use PACOTS: yes - Use low airways: yes - Use high airways: yes

Route

EGNH OSMEG EGEO

ID Type Via Altitude (ft/m) Position (lat/lon) Dist (leg/tot) Name
O EGNH APT - 0 / 0 53.77170 / -3.03315 - / 0 nm Blackpool
OSMEG FIX - 19,400 / 5,913 55.14060 / -4.10083 90 / 90 nm
O EGEO APT - 0 / 0 56.46360 / -5.39961 90 / 181 nm Oban

Altitude Profile

Advertisement - Login to hide

Weather


0- 5 10 15 20 25 30 35+ Temperature / °C

Clouds and Precipitation
Forecast for 2021-03-22 12:00 UTC. Updated 2 months ago

Ground ~20,000 ft ~40,000 ft Winds

EGNH

Details ICAO EGNH (BLK)
Name Blackpool
Region United Kingdom
Timezone Europe/London (UTC+1.0)
Stats Elevation 34 ft / 10 m (AMSL)
Location 53.771700° -3.033150°
Runways 2
Magnetic Variation 1.268° W

METAR

EGNH 081050Z 14016KT 7000 -RA BKN007 09/08 Q0996

Decode

TAF

Not found

Departure Runways

ID Width Length Bearing (true/mag) Surface Threshold Overrun Markings Lighting
10 148 ft / 45 m 6,116 ft / 1,864 m 94.65° / 95.92° ASPHALT 0 ft / 0 m 0 ft / 0 m VISUAL EDGE THRESHOLD MALS
13 77 ft / 24 m 3,277 ft / 999 m 127.39° / 128.66° ASPHALT 492 ft / 150 m 0 ft / 0 m VISUAL
28 148 ft / 45 m 6,116 ft / 1,864 m 274.67° / 275.94° ASPHALT 0 ft / 0 m 0 ft / 0 m PREC-APP EDGE THRESHOLD MALS
31 77 ft / 24 m 3,277 ft / 999 m 307.40° / 308.67° ASPHALT 0 ft / 0 m 0 ft / 0 m VISUAL

EGEO

Details ICAO EGEO (OBN)
Name Oban
Region United Kingdom
Timezone Europe/London (UTC+1.0)
Stats Elevation 23 ft / 7 m (AMSL)
Location 56.463600° -5.399610°
Runways 1
Magnetic Variation 2.655° W

METAR

EGEO 081050Z 12012G23KT 090V160 9999 SCT035 09/01 Q0996

Decode

TAF

Not found

Destination Runways

ID Width Length Bearing (true/mag) Surface Threshold Overrun Markings Lighting
01 98 ft / 30 m 4,141 ft / 1,262 m 5.57° / 8.23° ASPHALT 407 ft / 124 m 0 ft / 0 m VISUAL EDGE THRESHOLD
19 98 ft / 30 m 4,141 ft / 1,262 m 185.57° / 188.23° ASPHALT 659 ft / 201 m 0 ft / 0 m VISUAL EDGE THRESHOLD MALS